Rescue Uni — LF5005 — position and weather

sailwx.info

Track history (hours):
 
Tides and Currents Weather Stations Pressure Air Temp Water Temp Dewpoint Dewpoint Depression Visibility Wind Speed Wind Dir Waves Ship Positions

Rescue Uni

Last reported at 2014-Aug-23 03:34 UTC. Time now 2014-Aug-23 11:25 UTC.
Position N 63°26' E 010°23'.

; draft 0.7 m.

Type: SAR. MMSI: 257964900.

Date/timePositionNaut miles runAvg speedWind from/ knotsBaromVisibWave heightAir tempDewpointWater temp
2014-Aug-23 03:34N 63°26' E 010°23'0 0.0
2014-Aug-23 02:34N 63°26' E 010°23'0 0.0
2014-Aug-23 01:33N 63°26' E 010°23'0 0.0
2014-Aug-23 00:34N 63°26' E 010°23'0 0.0
2014-Aug-22 23:34N 63°26' E 010°23'0 0.0
2014-Aug-22 22:34N 63°26' E 010°23'0 0.0
2014-Aug-22 21:34N 63°26' E 010°23'0 0.0
2014-Aug-22 20:34N 63°26' E 010°23'0 0.0
2014-Aug-22 19:34N 63°26' E 010°23'0 0.0
2014-Aug-22 18:33N 63°26' E 010°23'0 0.0
2014-Aug-22 17:34N 63°26' E 010°23'0 0.0
2014-Aug-22 16:34N 63°26' E 010°23'0 0.0
2014-Aug-22 15:34N 63°26' E 010°23'0 0.0
2014-Aug-22 14:34N 63°26' E 010°23'0 0.0
2014-Aug-22 13:34N 63°26' E 010°23'0 0.0
2014-Aug-22 12:34N 63°26' E 010°23'0 0.0
2014-Aug-22 11:34N 63°26' E 010°23'0 0.0
2014-Aug-22 10:33N 63°26' E 010°23'0 0.0
2014-Aug-22 09:34N 63°26' E 010°23'0 0.0
2014-Aug-22 08:33N 63°26' E 010°23'0 0.0
2014-Aug-22 07:34N 63°26' E 010°23'0 0.0
2014-Aug-22 06:34N 63°26' E 010°23'0 0.0
2014-Aug-22 05:34N 63°26' E 010°23'0 0.0
2014-Aug-22 04:34N 63°26' E 010°23'0 0.0
2014-Aug-22 03:33N 63°26' E 010°23'0 0.0
2014-Aug-22 02:34N 63°26' E 010°23'0 0.0
2014-Aug-22 01:34N 63°26' E 010°23'0 0.0
2014-Aug-22 00:34N 63°26' E 010°23'0 0.0
2014-Aug-21 23:33N 63°26' E 010°23'0 0.0
2014-Aug-21 22:34N 63°26' E 010°23'0 0.0
2014-Aug-21 21:33N 63°26' E 010°23'1 1.4
2014-Aug-21 20:33N 63°27' E 010°25'7 5.9
2014-Aug-21 19:25N 63°28' E 010°11'4 0.9
2014-Aug-21 15:19N 63°27' E 010°19'2 2.9
2014-Aug-21 14:33N 63°26' E 010°23'0 0.0
2014-Aug-21 13:33N 63°26' E 010°23'0 0.0
2014-Aug-21 12:33N 63°26' E 010°23'0 0.0
2014-Aug-21 11:33N 63°26' E 010°23'0 0.0
2014-Aug-21 10:33N 63°26' E 010°23'0 0.0
2014-Aug-21 09:33N 63°26' E 010°23'0 0.0
2014-Aug-21 08:33N 63°26' E 010°23'0 0.0
2014-Aug-21 07:33N 63°26' E 010°23'0 0.0
2014-Aug-21 06:33N 63°26' E 010°23'0 0.0
2014-Aug-21 05:33N 63°26' E 010°23'0 0.0
2014-Aug-21 04:33N 63°26' E 010°23'0 0.0
2014-Aug-21 03:33N 63°26' E 010°23'0 0.0
2014-Aug-21 02:33N 63°26' E 010°23'0 0.0
2014-Aug-21 01:33N 63°26' E 010°23'0 0.0
2014-Aug-21 00:33N 63°26' E 010°23'0 0.0
2014-Aug-20 23:33N 63°26' E 010°23'0 0.0
2014-Aug-20 22:33N 63°26' E 010°23'0 0.0
2014-Aug-20 21:33N 63°26' E 010°23'0 0.0
2014-Aug-20 20:33N 63°26' E 010°23'0 0.0
2014-Aug-20 19:33N 63°26' E 010°23'0 0.0
2014-Aug-20 18:33N 63°26' E 010°23'2 2.1
2014-Aug-20 17:34N 63°27' E 010°26'0 0.0
2014-Aug-20 16:34N 63°27' E 010°26'0 0.3
2014-Aug-20 15:33N 63°27' E 010°25'2 1.9
2014-Aug-20 14:33N 63°26' E 010°23'0 0.0
2014-Aug-20 13:33N 63°26' E 010°23'0 0.0
2014-Aug-20 12:33N 63°26' E 010°23'0 0.0
2014-Aug-20 11:33N 63°26' E 010°23'0 0.0
2014-Aug-20 10:33N 63°26' E 010°23'0 0.0
2014-Aug-20 09:33N 63°26' E 010°23'0 0.0
2014-Aug-20 08:33N 63°26' E 010°23'0 0.0
2014-Aug-20 07:33N 63°26' E 010°23'0 0.0
2014-Aug-20 06:33N 63°26' E 010°23'0 0.0
2014-Aug-20 05:33N 63°26' E 010°23'0 0.0
2014-Aug-20 04:33N 63°26' E 010°23'0 0.0
2014-Aug-20 03:33N 63°26' E 010°23'0 0.0
2014-Aug-20 02:33N 63°26' E 010°23'0 0.0
2014-Aug-20 01:33N 63°26' E 010°23'0 0.0
2014-Aug-20 00:33N 63°26' E 010°23'0 0.0
2014-Aug-19 23:33N 63°26' E 010°23'0 0.0
2014-Aug-19 22:33N 63°26' E 010°23'0 0.0
2014-Aug-19 21:33N 63°26' E 010°23'0 0.0
2014-Aug-19 20:33N 63°26' E 010°23'0 0.0
2014-Aug-19 19:33N 63°26' E 010°23'0 0.0
2014-Aug-19 18:33N 63°26' E 010°23'0 0.0
2014-Aug-19 17:33N 63°26' E 010°23'0 0.0
2014-Aug-19 16:33N 63°26' E 010°23'0 0.0
2014-Aug-19 15:33N 63°26' E 010°23'0 0.0
2014-Aug-19 14:33N 63°26' E 010°23'0 0.0
2014-Aug-19 13:33N 63°26' E 010°23'0 0.0
2014-Aug-19 12:33N 63°26' E 010°23'0 0.0
2014-Aug-19 11:33N 63°26' E 010°23'0 0.0
2014-Aug-19 10:33N 63°26' E 010°23'0 0.0
2014-Aug-19 09:33N 63°26' E 010°23'0 0.0
2014-Aug-19 08:33N 63°26' E 010°23'0 0.0
2014-Aug-19 07:33N 63°26' E 010°23'0 0.0
2014-Aug-19 06:33N 63°26' E 010°23'0 0.0
2014-Aug-19 05:33N 63°26' E 010°23'0 0.0
2014-Aug-19 04:33N 63°26' E 010°23'0 0.0
2014-Aug-19 03:33N 63°26' E 010°23'0 0.0
2014-Aug-19 02:33N 63°26' E 010°23'0 0.0
2014-Aug-19 01:33N 63°26' E 010°23'0 0.0
2014-Aug-19 00:33N 63°26' E 010°23'0 0.0
2014-Aug-18 23:33N 63°26' E 010°23'0 0.0
2014-Aug-18 22:33N 63°26' E 010°23'0 0.0
2014-Aug-18 21:33N 63°26' E 010°23'0 0.0
2014-Aug-18 20:33N 63°26' E 010°23'0 0.0
2014-Aug-18 19:33N 63°26' E 010°23'0 0.0
2014-Aug-18 18:33N 63°26' E 010°23'0 0.0
2014-Aug-18 17:33N 63°26' E 010°23'0 0.0
2014-Aug-18 16:33N 63°26' E 010°23'0 0.0
2014-Aug-18 15:33N 63°26' E 010°23'0 0.0
2014-Aug-18 14:33N 63°26' E 010°23'0 0.0
2014-Aug-18 13:33N 63°26' E 010°23'0 0.0
2014-Aug-18 12:33N 63°26' E 010°23'0 0.0
2014-Aug-18 11:33N 63°26' E 010°23'0 0.0
2014-Aug-18 10:33N 63°26' E 010°23'0 0.0
2014-Aug-18 09:33N 63°26' E 010°23'0 0.0
2014-Aug-18 08:33N 63°26' E 010°23'0 0.0
2014-Aug-18 07:33N 63°26' E 010°23'0 0.0
2014-Aug-18 06:33N 63°26' E 010°23'0 0.0
2014-Aug-18 05:33N 63°26' E 010°23'0 0.0
2014-Aug-18 04:33N 63°26' E 010°23'0 0.0
2014-Aug-18 03:33N 63°26' E 010°23'0 0.0
2014-Aug-18 02:33N 63°26' E 010°23'0 0.0
2014-Aug-18 01:33N 63°26' E 010°23'0 0.0
2014-Aug-18 00:33N 63°26' E 010°23'0 0.0
2014-Aug-17 18:33N 63°26' E 010°23'0 0.0
2014-Aug-17 17:33N 63°26' E 010°23'0 0.0
2014-Aug-17 16:33N 63°26' E 010°23'0 0.0
2014-Aug-17 15:33N 63°26' E 010°23'0 0.0
2014-Aug-17 14:33N 63°26' E 010°23'0 0.0
2014-Aug-17 13:33N 63°26' E 010°23'0 0.0
2014-Aug-17 12:33N 63°26' E 010°23'0 0.0
2014-Aug-17 11:33N 63°26' E 010°23'0 0.0
2014-Aug-17 10:33N 63°26' E 010°23'0 0.0
2014-Aug-17 09:33N 63°26' E 010°23'0 0.0
2014-Aug-17 08:33N 63°26' E 010°23'0 0.0
2014-Aug-17 07:33N 63°26' E 010°23'0 0.0
2014-Aug-17 06:33N 63°26' E 010°23'0 0.0
2014-Aug-17 05:33N 63°26' E 010°23'0 0.0
2014-Aug-17 04:33N 63°26' E 010°23'0 0.0
2014-Aug-17 03:33N 63°26' E 010°23'0 0.0
2014-Aug-17 02:33N 63°26' E 010°23'0 0.0
2014-Aug-17 01:33N 63°26' E 010°23'0 0.0
2014-Aug-17 00:33N 63°26' E 010°23'0 0.0
2014-Aug-16 23:33N 63°26' E 010°23'0 0.0
2014-Aug-16 22:33N 63°26' E 010°23'0 0.0
2014-Aug-16 21:33N 63°26' E 010°23'0 0.0
2014-Aug-16 20:33N 63°26' E 010°23'0 0.0
2014-Aug-16 19:33N 63°26' E 010°23'0 0.0
2014-Aug-16 18:33N 63°26' E 010°23'0 0.0
2014-Aug-16 17:33N 63°26' E 010°23'0 0.0
2014-Aug-16 16:33N 63°26' E 010°23'0 0.0
2014-Aug-16 15:33N 63°26' E 010°23'0 0.0
2014-Aug-16 14:33N 63°26' E 010°23'0 0.0
2014-Aug-16 13:33N 63°26' E 010°23'0 0.0
2014-Aug-16 12:33N 63°26' E 010°23'0 0.0
2014-Aug-16 11:33N 63°26' E 010°23'0 0.0
2014-Aug-16 10:33N 63°26' E 010°23'0 0.0
2014-Aug-16 09:33N 63°26' E 010°23'0 0.0
2014-Aug-16 08:33N 63°26' E 010°23'0 0.0
2014-Aug-16 07:33N 63°26' E 010°23'0 0.0
2014-Aug-16 06:33N 63°26' E 010°23'0 0.0
2014-Aug-16 05:33N 63°26' E 010°23'0 0.0
2014-Aug-16 04:33N 63°26' E 010°23'0 0.0
2014-Aug-16 03:33N 63°26' E 010°23'0 0.0
2014-Aug-16 02:33N 63°26' E 010°23'0 0.0
2014-Aug-16 01:33N 63°26' E 010°23'0 0.0
2014-Aug-16 00:33N 63°26' E 010°23'0 0.0
2014-Aug-15 23:33N 63°26' E 010°23'0 0.0
2014-Aug-15 22:33N 63°26' E 010°23'0 0.0
2014-Aug-15 21:33N 63°26' E 010°23'0 0.0
2014-Aug-15 20:33N 63°26' E 010°23'0 0.0
2014-Aug-15 19:33N 63°26' E 010°23'0 0.0
2014-Aug-15 18:33N 63°26' E 010°23'0 0.0
2014-Aug-15 17:33N 63°26' E 010°23'0 0.0
2014-Aug-15 16:33N 63°26' E 010°23'0 0.0
2014-Aug-15 15:33N 63°26' E 010°23'0 0.0
2014-Aug-15 14:33N 63°26' E 010°23'0 0.0
2014-Aug-15 13:33N 63°26' E 010°23'0 0.0
2014-Aug-15 12:33N 63°26' E 010°23'0 0.0
2014-Aug-15 11:33N 63°26' E 010°23'0 0.0
2014-Aug-15 10:33N 63°26' E 010°23'0 0.0
2014-Aug-15 09:33N 63°26' E 010°23'0 0.0
2014-Aug-15 08:33N 63°26' E 010°23'0 0.0
2014-Aug-15 07:33N 63°26' E 010°23'0 0.0
2014-Aug-15 06:33N 63°26' E 010°23'0 0.0
2014-Aug-15 05:33N 63°26' E 010°23'0 0.0
2014-Aug-15 04:33N 63°26' E 010°23'0 0.0
2014-Aug-15 03:33N 63°26' E 010°23'0 0.0
2014-Aug-15 02:33N 63°26' E 010°23'0 0.0
2014-Aug-15 01:33N 63°26' E 010°23'0 0.0
2014-Aug-15 00:33N 63°26' E 010°23'0 0.0
2014-Aug-14 23:33N 63°26' E 010°23'0 0.0
2014-Aug-14 22:33N 63°26' E 010°23'0 0.0
2014-Aug-14 21:33N 63°26' E 010°23'0 0.0
2014-Aug-14 20:33N 63°26' E 010°23'0 0.0
2014-Aug-14 19:33N 63°26' E 010°23'0 0.0
2014-Aug-14 18:33N 63°26' E 010°23'0 0.0
2014-Aug-14 17:33N 63°26' E 010°23'0 0.0
2014-Aug-14 16:33N 63°26' E 010°23'0 0.0
2014-Aug-14 15:33N 63°26' E 010°23'0 0.0
2014-Aug-14 14:32N 63°26' E 010°23'0 0.0
2014-Aug-14 13:33N 63°26' E 010°23'0 0.0
2014-Aug-14 12:33N 63°26' E 010°23'0 0.0
2014-Aug-14 11:33N 63°26' E 010°23'0 0.0
2014-Aug-14 10:33N 63°26' E 010°23'0 0.0
2014-Aug-14 09:33N 63°26' E 010°23'0 0.0
2014-Aug-14 08:33N 63°26' E 010°23'0 0.0
2014-Aug-14 07:33N 63°26' E 010°23'0 0.0
2014-Aug-14 06:33N 63°26' E 010°23'0 0.0
2014-Aug-14 05:33N 63°26' E 010°23'0 0.0
2014-Aug-14 04:33N 63°26' E 010°23'0 0.0
2014-Aug-14 03:33N 63°26' E 010°23'0 0.0
2014-Aug-14 02:33N 63°26' E 010°23'0 0.0
2014-Aug-14 01:33N 63°26' E 010°23'0 0.0
2014-Aug-14 00:33N 63°26' E 010°23'0 0.0
2014-Aug-13 23:33N 63°26' E 010°23'0 0.0
2014-Aug-13 22:33N 63°26' E 010°23'0 0.0
2014-Aug-13 21:33N 63°26' E 010°23'6 2.3
2014-Aug-13 19:06N 63°27' E 010°35'510.0
2014-Aug-13 18:34N 63°26' E 010°23'1 1.4
2014-Aug-13 17:33N 63°27' E 010°24'0 0.1
2014-Aug-13 16:34N 63°27' E 010°24'1 0.6
2014-Aug-13 15:34N 63°27' E 010°24'1 1.1
2014-Aug-13 14:33N 63°26' E 010°23'0 0.0
2014-Aug-13 13:33N 63°26' E 010°23'0 0.0
2014-Aug-13 12:34N 63°26' E 010°23'0 0.0
2014-Aug-13 11:33N 63°26' E 010°23'0 0.0
2014-Aug-13 10:33N 63°26' E 010°23'0 0.0
2014-Aug-13 09:33N 63°26' E 010°23'0 0.0
2014-Aug-13 08:33N 63°26' E 010°23'0 0.0
2014-Aug-13 07:34N 63°26' E 010°23'0 0.0
2014-Aug-13 06:33N 63°26' E 010°23'0 0.0
2014-Aug-13 05:33N 63°26' E 010°23'0 0.0
2014-Aug-13 04:33N 63°26' E 010°23'  
Track history (hours):
 
Tides and Currents Weather Stations Pressure Air Temp Water Temp Dewpoint Dewpoint Depression Visibility Wind Speed Wind Dir Waves Ship Positions

Rescue Uni

Last reported at 2014-Aug-23 03:34 UTC. Time now 2014-Aug-23 11:25 UTC.
Position N 63°26' E 010°23'.

; draft 0.7 m.

Type: SAR. MMSI: 257964900.

Date/timePositionNaut miles runAvg speedWind from/ knotsBaromVisibWave heightAir tempDewpointWater temp
2014-Aug-23 03:34N 63°26' E 010°23'0 0.0
2014-Aug-23 02:34N 63°26' E 010°23'0 0.0
2014-Aug-23 01:33N 63°26' E 010°23'0 0.0
2014-Aug-23 00:34N 63°26' E 010°23'0 0.0
2014-Aug-22 23:34N 63°26' E 010°23'0 0.0
2014-Aug-22 22:34N 63°26' E 010°23'0 0.0
2014-Aug-22 21:34N 63°26' E 010°23'0 0.0
2014-Aug-22 20:34N 63°26' E 010°23'0 0.0
2014-Aug-22 19:34N 63°26' E 010°23'0 0.0
2014-Aug-22 18:33N 63°26' E 010°23'0 0.0
2014-Aug-22 17:34N 63°26' E 010°23'0 0.0
2014-Aug-22 16:34N 63°26' E 010°23'0 0.0
2014-Aug-22 15:34N 63°26' E 010°23'0 0.0
2014-Aug-22 14:34N 63°26' E 010°23'0 0.0
2014-Aug-22 13:34N 63°26' E 010°23'0 0.0
2014-Aug-22 12:34N 63°26' E 010°23'0 0.0
2014-Aug-22 11:34N 63°26' E 010°23'0 0.0
2014-Aug-22 10:33N 63°26' E 010°23'0 0.0
2014-Aug-22 09:34N 63°26' E 010°23'0 0.0
2014-Aug-22 08:33N 63°26' E 010°23'0 0.0
2014-Aug-22 07:34N 63°26' E 010°23'0 0.0
2014-Aug-22 06:34N 63°26' E 010°23'0 0.0
2014-Aug-22 05:34N 63°26' E 010°23'0 0.0
2014-Aug-22 04:34N 63°26' E 010°23'0 0.0
2014-Aug-22 03:33N 63°26' E 010°23'0 0.0
2014-Aug-22 02:34N 63°26' E 010°23'0 0.0
2014-Aug-22 01:34N 63°26' E 010°23'0 0.0
2014-Aug-22 00:34N 63°26' E 010°23'0 0.0
2014-Aug-21 23:33N 63°26' E 010°23'0 0.0
2014-Aug-21 22:34N 63°26' E 010°23'0 0.0
2014-Aug-21 21:33N 63°26' E 010°23'1 1.4
2014-Aug-21 20:33N 63°27' E 010°25'7 5.9
2014-Aug-21 19:25N 63°28' E 010°11'4 0.9
2014-Aug-21 15:19N 63°27' E 010°19'2 2.9
2014-Aug-21 14:33N 63°26' E 010°23'0 0.0
2014-Aug-21 13:33N 63°26' E 010°23'0 0.0
2014-Aug-21 12:33N 63°26' E 010°23'0 0.0
2014-Aug-21 11:33N 63°26' E 010°23'0 0.0
2014-Aug-21 10:33N 63°26' E 010°23'0 0.0
2014-Aug-21 09:33N 63°26' E 010°23'0 0.0
2014-Aug-21 08:33N 63°26' E 010°23'0 0.0
2014-Aug-21 07:33N 63°26' E 010°23'0 0.0
2014-Aug-21 06:33N 63°26' E 010°23'0 0.0
2014-Aug-21 05:33N 63°26' E 010°23'0 0.0
2014-Aug-21 04:33N 63°26' E 010°23'0 0.0
2014-Aug-21 03:33N 63°26' E 010°23'0 0.0
2014-Aug-21 02:33N 63°26' E 010°23'0 0.0
2014-Aug-21 01:33N 63°26' E 010°23'0 0.0
2014-Aug-21 00:33N 63°26' E 010°23'0 0.0
2014-Aug-20 23:33N 63°26' E 010°23'0 0.0
2014-Aug-20 22:33N 63°26' E 010°23'0 0.0
2014-Aug-20 21:33N 63°26' E 010°23'0 0.0
2014-Aug-20 20:33N 63°26' E 010°23'0 0.0
2014-Aug-20 19:33N 63°26' E 010°23'0 0.0
2014-Aug-20 18:33N 63°26' E 010°23'2 2.1
2014-Aug-20 17:34N 63°27' E 010°26'0 0.0
2014-Aug-20 16:34N 63°27' E 010°26'0 0.3
2014-Aug-20 15:33N 63°27' E 010°25'2 1.9
2014-Aug-20 14:33N 63°26' E 010°23'0 0.0
2014-Aug-20 13:33N 63°26' E 010°23'0 0.0
2014-Aug-20 12:33N 63°26' E 010°23'0 0.0
2014-Aug-20 11:33N 63°26' E 010°23'0 0.0
2014-Aug-20 10:33N 63°26' E 010°23'0 0.0
2014-Aug-20 09:33N 63°26' E 010°23'0 0.0
2014-Aug-20 08:33N 63°26' E 010°23'0 0.0
2014-Aug-20 07:33N 63°26' E 010°23'0 0.0
2014-Aug-20 06:33N 63°26' E 010°23'0 0.0
2014-Aug-20 05:33N 63°26' E 010°23'0 0.0
2014-Aug-20 04:33N 63°26' E 010°23'0 0.0
2014-Aug-20 03:33N 63°26' E 010°23'0 0.0
2014-Aug-20 02:33N 63°26' E 010°23'0 0.0
2014-Aug-20 01:33N 63°26' E 010°23'0 0.0
2014-Aug-20 00:33N 63°26' E 010°23'0 0.0
2014-Aug-19 23:33N 63°26' E 010°23'0 0.0
2014-Aug-19 22:33N 63°26' E 010°23'0 0.0
2014-Aug-19 21:33N 63°26' E 010°23'0 0.0
2014-Aug-19 20:33N 63°26' E 010°23'0 0.0
2014-Aug-19 19:33N 63°26' E 010°23'0 0.0
2014-Aug-19 18:33N 63°26' E 010°23'0 0.0
2014-Aug-19 17:33N 63°26' E 010°23'0 0.0
2014-Aug-19 16:33N 63°26' E 010°23'0 0.0
2014-Aug-19 15:33N 63°26' E 010°23'0 0.0
2014-Aug-19 14:33N 63°26' E 010°23'0 0.0
2014-Aug-19 13:33N 63°26' E 010°23'0 0.0
2014-Aug-19 12:33N 63°26' E 010°23'0 0.0
2014-Aug-19 11:33N 63°26' E 010°23'0 0.0
2014-Aug-19 10:33N 63°26' E 010°23'0 0.0
2014-Aug-19 09:33N 63°26' E 010°23'0 0.0
2014-Aug-19 08:33N 63°26' E 010°23'0 0.0
2014-Aug-19 07:33N 63°26' E 010°23'0 0.0
2014-Aug-19 06:33N 63°26' E 010°23'0 0.0
2014-Aug-19 05:33N 63°26' E 010°23'0 0.0
2014-Aug-19 04:33N 63°26' E 010°23'0 0.0
2014-Aug-19 03:33N 63°26' E 010°23'0 0.0
2014-Aug-19 02:33N 63°26' E 010°23'0 0.0
2014-Aug-19 01:33N 63°26' E 010°23'0 0.0
2014-Aug-19 00:33N 63°26' E 010°23'0 0.0
2014-Aug-18 23:33N 63°26' E 010°23'0 0.0
2014-Aug-18 22:33N 63°26' E 010°23'0 0.0
2014-Aug-18 21:33N 63°26' E 010°23'0 0.0
2014-Aug-18 20:33N 63°26' E 010°23'0 0.0
2014-Aug-18 19:33N 63°26' E 010°23'0 0.0
2014-Aug-18 18:33N 63°26' E 010°23'0 0.0
2014-Aug-18 17:33N 63°26' E 010°23'0 0.0
2014-Aug-18 16:33N 63°26' E 010°23'0 0.0
2014-Aug-18 15:33N 63°26' E 010°23'0 0.0
2014-Aug-18 14:33N 63°26' E 010°23'0 0.0
2014-Aug-18 13:33N 63°26' E 010°23'0 0.0
2014-Aug-18 12:33N 63°26' E 010°23'0 0.0
2014-Aug-18 11:33N 63°26' E 010°23'0 0.0
2014-Aug-18 10:33N 63°26' E 010°23'0 0.0
2014-Aug-18 09:33N 63°26' E 010°23'0 0.0
2014-Aug-18 08:33N 63°26' E 010°23'0 0.0
2014-Aug-18 07:33N 63°26' E 010°23'0 0.0
2014-Aug-18 06:33N 63°26' E 010°23'0 0.0
2014-Aug-18 05:33N 63°26' E 010°23'0 0.0
2014-Aug-18 04:33N 63°26' E 010°23'0 0.0
2014-Aug-18 03:33N 63°26' E 010°23'0 0.0
2014-Aug-18 02:33N 63°26' E 010°23'0 0.0
2014-Aug-18 01:33N 63°26' E 010°23'0 0.0
2014-Aug-18 00:33N 63°26' E 010°23'0 0.0
2014-Aug-17 18:33N 63°26' E 010°23'0 0.0
2014-Aug-17 17:33N 63°26' E 010°23'0 0.0
2014-Aug-17 16:33N 63°26' E 010°23'0 0.0
2014-Aug-17 15:33N 63°26' E 010°23'0 0.0
2014-Aug-17 14:33N 63°26' E 010°23'0 0.0
2014-Aug-17 13:33N 63°26' E 010°23'0 0.0
2014-Aug-17 12:33N 63°26' E 010°23'0 0.0
2014-Aug-17 11:33N 63°26' E 010°23'0 0.0
2014-Aug-17 10:33N 63°26' E 010°23'0 0.0
2014-Aug-17 09:33N 63°26' E 010°23'0 0.0
2014-Aug-17 08:33N 63°26' E 010°23'0 0.0
2014-Aug-17 07:33N 63°26' E 010°23'0 0.0
2014-Aug-17 06:33N 63°26' E 010°23'0 0.0
2014-Aug-17 05:33N 63°26' E 010°23'0 0.0
2014-Aug-17 04:33N 63°26' E 010°23'0 0.0
2014-Aug-17 03:33N 63°26' E 010°23'0 0.0
2014-Aug-17 02:33N 63°26' E 010°23'0 0.0
2014-Aug-17 01:33N 63°26' E 010°23'0 0.0
2014-Aug-17 00:33N 63°26' E 010°23'0 0.0
2014-Aug-16 23:33N 63°26' E 010°23'0 0.0
2014-Aug-16 22:33N 63°26' E 010°23'0 0.0
2014-Aug-16 21:33N 63°26' E 010°23'0 0.0
2014-Aug-16 20:33N 63°26' E 010°23'0 0.0
2014-Aug-16 19:33N 63°26' E 010°23'0 0.0
2014-Aug-16 18:33N 63°26' E 010°23'0 0.0
2014-Aug-16 17:33N 63°26' E 010°23'0 0.0
2014-Aug-16 16:33N 63°26' E 010°23'0 0.0
2014-Aug-16 15:33N 63°26' E 010°23'0 0.0
2014-Aug-16 14:33N 63°26' E 010°23'0 0.0
2014-Aug-16 13:33N 63°26' E 010°23'0 0.0
2014-Aug-16 12:33N 63°26' E 010°23'0 0.0
2014-Aug-16 11:33N 63°26' E 010°23'0 0.0
2014-Aug-16 10:33N 63°26' E 010°23'0 0.0
2014-Aug-16 09:33N 63°26' E 010°23'0 0.0
2014-Aug-16 08:33N 63°26' E 010°23'0 0.0
2014-Aug-16 07:33N 63°26' E 010°23'0 0.0
2014-Aug-16 06:33N 63°26' E 010°23'0 0.0
2014-Aug-16 05:33N 63°26' E 010°23'0 0.0
2014-Aug-16 04:33N 63°26' E 010°23'0 0.0
2014-Aug-16 03:33N 63°26' E 010°23'0 0.0
2014-Aug-16 02:33N 63°26' E 010°23'0 0.0
2014-Aug-16 01:33N 63°26' E 010°23'0 0.0
2014-Aug-16 00:33N 63°26' E 010°23'0 0.0
2014-Aug-15 23:33N 63°26' E 010°23'0 0.0
2014-Aug-15 22:33N 63°26' E 010°23'0 0.0
2014-Aug-15 21:33N 63°26' E 010°23'0 0.0
2014-Aug-15 20:33N 63°26' E 010°23'0 0.0
2014-Aug-15 19:33N 63°26' E 010°23'0 0.0
2014-Aug-15 18:33N 63°26' E 010°23'0 0.0
2014-Aug-15 17:33N 63°26' E 010°23'0 0.0
2014-Aug-15 16:33N 63°26' E 010°23'0 0.0
2014-Aug-15 15:33N 63°26' E 010°23'0 0.0
2014-Aug-15 14:33N 63°26' E 010°23'0 0.0
2014-Aug-15 13:33N 63°26' E 010°23'0 0.0
2014-Aug-15 12:33N 63°26' E 010°23'0 0.0
2014-Aug-15 11:33N 63°26' E 010°23'0 0.0
2014-Aug-15 10:33N 63°26' E 010°23'0 0.0
2014-Aug-15 09:33N 63°26' E 010°23'0 0.0
2014-Aug-15 08:33N 63°26' E 010°23'0 0.0
2014-Aug-15 07:33N 63°26' E 010°23'0 0.0
2014-Aug-15 06:33N 63°26' E 010°23'0 0.0
2014-Aug-15 05:33N 63°26' E 010°23'0 0.0
2014-Aug-15 04:33N 63°26' E 010°23'0 0.0
2014-Aug-15 03:33N 63°26' E 010°23'0 0.0
2014-Aug-15 02:33N 63°26' E 010°23'0 0.0
2014-Aug-15 01:33N 63°26' E 010°23'0 0.0
2014-Aug-15 00:33N 63°26' E 010°23'0 0.0
2014-Aug-14 23:33N 63°26' E 010°23'0 0.0
2014-Aug-14 22:33N 63°26' E 010°23'0 0.0
2014-Aug-14 21:33N 63°26' E 010°23'0 0.0
2014-Aug-14 20:33N 63°26' E 010°23'0 0.0
2014-Aug-14 19:33N 63°26' E 010°23'0 0.0
2014-Aug-14 18:33N 63°26' E 010°23'0 0.0
2014-Aug-14 17:33N 63°26' E 010°23'0 0.0
2014-Aug-14 16:33N 63°26' E 010°23'0 0.0
2014-Aug-14 15:33N 63°26' E 010°23'0 0.0
2014-Aug-14 14:32N 63°26' E 010°23'0 0.0
2014-Aug-14 13:33N 63°26' E 010°23'0 0.0
2014-Aug-14 12:33N 63°26' E 010°23'0 0.0
2014-Aug-14 11:33N 63°26' E 010°23'0 0.0
2014-Aug-14 10:33N 63°26' E 010°23'0 0.0
2014-Aug-14 09:33N 63°26' E 010°23'0 0.0
2014-Aug-14 08:33N 63°26' E 010°23'0 0.0
2014-Aug-14 07:33N 63°26' E 010°23'0 0.0
2014-Aug-14 06:33N 63°26' E 010°23'0 0.0
2014-Aug-14 05:33N 63°26' E 010°23'0 0.0
2014-Aug-14 04:33N 63°26' E 010°23'0 0.0
2014-Aug-14 03:33N 63°26' E 010°23'0 0.0
2014-Aug-14 02:33N 63°26' E 010°23'0 0.0
2014-Aug-14 01:33N 63°26' E 010°23'0 0.0
2014-Aug-14 00:33N 63°26' E 010°23'0 0.0
2014-Aug-13 23:33N 63°26' E 010°23'0 0.0
2014-Aug-13 22:33N 63°26' E 010°23'0 0.0
2014-Aug-13 21:33N 63°26' E 010°23'6 2.3
2014-Aug-13 19:06N 63°27' E 010°35'510.0
2014-Aug-13 18:34N 63°26' E 010°23'1 1.4
2014-Aug-13 17:33N 63°27' E 010°24'0 0.1
2014-Aug-13 16:34N 63°27' E 010°24'1 0.6
2014-Aug-13 15:34N 63°27' E 010°24'1 1.1
2014-Aug-13 14:33N 63°26' E 010°23'0 0.0
2014-Aug-13 13:33N 63°26' E 010°23'0 0.0
2014-Aug-13 12:34N 63°26' E 010°23'0 0.0
2014-Aug-13 11:33N 63°26' E 010°23'0 0.0
2014-Aug-13 10:33N 63°26' E 010°23'0 0.0
2014-Aug-13 09:33N 63°26' E 010°23'0 0.0
2014-Aug-13 08:33N 63°26' E 010°23'0 0.0
2014-Aug-13 07:34N 63°26' E 010°23'0 0.0
2014-Aug-13 06:33N 63°26' E 010°23'0 0.0
2014-Aug-13 05:33N 63°26' E 010°23'0 0.0
2014-Aug-13 04:33N 63°26' E 010°23'  

Dump ship's entire track history